createdAt,value
2018-03-23T00:00:15.217Z,3.60
2018-03-23T00:02:42.725Z,3.50
2018-03-23T00:05:10.261Z,3.50
2018-03-23T00:07:37.773Z,3.50
2018-03-23T00:10:06.081Z,3.40
2018-03-23T00:12:33.592Z,3.40
2018-03-23T00:15:01.896Z,3.60
2018-03-23T00:17:29.412Z,3.60
2018-03-23T00:19:56.957Z,3.60
2018-03-23T00:22:24.509Z,3.60
2018-03-23T00:24:52.057Z,3.60
2018-03-23T00:27:19.574Z,3.60
2018-03-23T00:29:47.090Z,3.60
2018-03-23T00:32:15.422Z,3.50
2018-03-23T00:34:43.000Z,3.50
2018-03-23T00:37:10.540Z,3.60
2018-03-23T00:39:38.090Z,3.50
2018-03-23T00:42:05.629Z,3.50
2018-03-23T00:44:33.137Z,3.50
2018-03-23T00:47:00.677Z,3.40
2018-03-23T00:49:28.234Z,3.40
2018-03-23T00:51:55.785Z,3.50
2018-03-23T00:54:23.300Z,3.50
2018-03-23T00:56:51.598Z,3.50
2018-03-23T00:59:19.117Z,3.50
2018-03-23T01:01:46.677Z,3.50
2018-03-23T01:04:14.961Z,3.60
2018-03-23T01:06:43.274Z,3.50
2018-03-23T01:09:10.794Z,3.50
2018-03-23T01:11:38.373Z,3.40
2018-03-23T01:14:05.897Z,3.30
2018-03-23T01:16:34.193Z,3.50
2018-03-23T01:19:01.712Z,3.40
2018-03-23T01:21:29.249Z,3.40
2018-03-23T01:23:56.761Z,3.50
2018-03-23T01:26:24.305Z,3.60
2018-03-23T01:28:52.576Z,3.40
2018-03-23T01:31:20.886Z,3.40
2018-03-23T01:33:48.404Z,3.40
2018-03-23T01:36:16.705Z,3.40
2018-03-23T01:38:44.217Z,3.40
2018-03-23T01:41:11.761Z,3.40
2018-03-23T01:43:39.273Z,3.50
2018-03-23T01:46:06.807Z,3.50
2018-03-23T01:48:35.094Z,3.50
2018-03-23T01:51:02.654Z,3.40
2018-03-23T01:53:42.060Z,3.50
2018-03-23T01:56:10.372Z,3.50
2018-03-23T01:58:37.890Z,3.50
2018-03-23T02:01:06.195Z,3.40
2018-03-23T02:03:33.712Z,3.40
2018-03-23T02:06:01.249Z,3.50
2018-03-23T02:08:28.774Z,3.50
2018-03-23T02:10:56.313Z,3.60
2018-03-23T02:13:23.829Z,3.60
2018-03-23T02:15:51.370Z,3.40
2018-03-23T02:18:18.893Z,3.40
2018-03-23T02:20:46.434Z,3.40
2018-03-23T02:23:14.229Z,3.30
2018-03-23T02:25:41.802Z,3.50
2018-03-23T02:28:09.309Z,3.60
2018-03-23T02:30:36.850Z,3.60
2018-03-23T02:33:05.127Z,3.60
2018-03-23T02:35:32.671Z,3.60
2018-03-23T02:38:00.951Z,3.80
2018-03-23T02:40:29.257Z,3.80
2018-03-23T02:42:56.769Z,3.80
2018-03-23T02:45:24.302Z,3.80
2018-03-23T02:47:51.821Z,3.80
2018-03-23T02:50:19.356Z,3.80
2018-03-23T02:52:47.666Z,3.70
2018-03-23T02:55:15.182Z,3.70
2018-03-23T02:57:43.490Z,3.80
2018-03-23T03:00:11.011Z,3.70
2018-03-23T03:02:39.307Z,3.70
2018-03-23T03:05:06.845Z,3.70
2018-03-23T03:07:35.146Z,3.70
2018-03-23T03:10:02.714Z,3.70
2018-03-23T03:12:30.253Z,3.70
2018-03-23T03:14:57.769Z,3.70
2018-03-23T03:17:25.303Z,3.70
2018-03-23T03:19:52.828Z,3.70
2018-03-23T03:22:20.380Z,3.60
2018-03-23T03:24:47.907Z,3.60
2018-03-23T03:27:16.216Z,3.70
2018-03-23T03:29:43.721Z,3.60
2018-03-23T03:32:12.062Z,3.70
2018-03-23T03:34:39.580Z,3.70
2018-03-23T03:37:07.872Z,3.60
2018-03-23T03:39:35.384Z,3.60
2018-03-23T03:42:02.920Z,3.70
2018-03-23T03:44:30.436Z,3.60
2018-03-23T03:46:57.984Z,3.60
2018-03-23T03:49:25.535Z,3.70
2018-03-23T03:51:53.819Z,3.80
2018-03-23T03:54:21.324Z,3.80
2018-03-23T03:56:48.889Z,3.80
2018-03-23T03:59:16.397Z,3.80
2018-03-23T04:01:43.928Z,3.80
2018-03-23T04:04:12.201Z,3.70
2018-03-23T04:06:40.505Z,3.80
2018-03-23T04:09:08.012Z,3.70
2018-03-23T04:11:35.544Z,3.80
2018-03-23T04:14:03.048Z,3.70
2018-03-23T04:16:30.580Z,3.70
2018-03-23T04:18:58.088Z,3.70
2018-03-23T04:21:25.620Z,3.70
2018-03-23T04:23:53.133Z,3.80
2018-03-23T04:26:20.668Z,3.80
2018-03-23T04:28:48.945Z,3.80
2018-03-23T04:31:16.476Z,3.70
2018-03-23T04:33:43.995Z,3.70
2018-03-23T04:36:11.528Z,3.70
2018-03-23T04:38:39.048Z,3.80
2018-03-23T04:41:06.581Z,3.80
2018-03-23T04:43:34.863Z,3.70
2018-03-23T04:46:02.393Z,3.70
2018-03-23T04:48:29.902Z,3.70
2018-03-23T04:50:57.436Z,3.70
2018-03-23T04:53:24.944Z,3.80
2018-03-23T04:55:52.488Z,3.80
2018-03-23T04:58:19.991Z,3.80
2018-03-23T05:00:48.269Z,3.70
2018-03-23T05:03:15.798Z,3.70
2018-03-23T05:05:43.557Z,3.70
2018-03-23T05:08:11.093Z,3.70
2018-03-23T05:10:38.599Z,3.60
2018-03-23T05:13:06.131Z,3.70
2018-03-23T05:15:33.644Z,3.80
2018-03-23T05:18:01.177Z,3.80
2018-03-23T05:20:28.708Z,3.80
2018-03-23T05:22:57.005Z,3.90
2018-03-23T05:25:24.518Z,3.90
2018-03-23T05:27:52.051Z,3.80
2018-03-23T05:30:19.557Z,3.80
2018-03-23T05:32:47.863Z,3.80
2018-03-23T05:35:15.368Z,3.80
2018-03-23T05:37:42.905Z,3.80
2018-03-23T05:40:10.427Z,3.80
2018-03-23T05:42:38.200Z,3.80
2018-03-23T05:45:05.708Z,3.80
2018-03-23T05:47:34.004Z,3.80
2018-03-23T05:50:01.513Z,3.80
2018-03-23T05:52:29.052Z,3.80
2018-03-23T05:54:56.564Z,3.80
2018-03-23T05:57:24.113Z,3.80
2018-03-23T05:59:52.391Z,3.80
2018-03-23T06:02:19.936Z,3.80
2018-03-23T06:04:48.217Z,3.80
2018-03-23T06:07:16.511Z,3.90
2018-03-23T06:09:44.022Z,3.90
2018-03-23T06:12:11.573Z,3.80
2018-03-23T06:14:39.090Z,3.80
2018-03-23T06:17:06.628Z,3.90
2018-03-23T06:19:34.143Z,3.90
2018-03-23T06:22:01.671Z,4.00
2018-03-23T06:24:29.433Z,4.10
2018-03-23T06:26:57.732Z,4.10
2018-03-23T06:29:25.242Z,4.10
2018-03-23T06:31:52.773Z,4.20
2018-03-23T06:34:21.048Z,4.20
2018-03-23T06:36:49.348Z,4.10
2018-03-23T06:39:16.856Z,4.10
2018-03-23T06:41:44.392Z,4.10
2018-03-23T06:44:11.901Z,4.10
2018-03-23T06:46:39.431Z,4.20
2018-03-23T06:49:06.936Z,4.20
2018-03-23T06:51:34.465Z,4.30
2018-03-23T06:54:01.968Z,4.20
2018-03-23T06:56:29.513Z,4.20
2018-03-23T06:58:57.019Z,4.20
2018-03-23T07:01:25.317Z,4.30
2018-03-23T07:03:52.829Z,4.20
2018-03-23T07:06:20.403Z,4.30
2018-03-23T07:08:48.672Z,4.30
2018-03-23T07:11:16.960Z,4.30
2018-03-23T07:13:45.256Z,4.30
2018-03-23T07:16:12.770Z,4.30
2018-03-23T07:18:40.309Z,4.30
2018-03-23T07:21:07.812Z,4.30
2018-03-23T07:23:35.345Z,4.30
2018-03-23T07:26:03.631Z,4.40
2018-03-23T07:28:31.932Z,4.40
2018-03-23T07:30:59.461Z,4.40
2018-03-23T07:33:27.756Z,4.50
2018-03-23T07:35:55.280Z,4.50
2018-03-23T07:38:23.579Z,4.60
2018-03-23T07:40:51.087Z,4.60
2018-03-23T07:43:18.634Z,4.60
2018-03-23T07:45:46.143Z,4.70
2018-03-23T07:48:13.672Z,4.70
2018-03-23T07:50:41.181Z,4.70
2018-03-23T07:53:08.734Z,4.70
2018-03-23T07:55:36.248Z,4.80
2018-03-23T07:58:04.543Z,4.90
2018-03-23T08:00:32.050Z,4.90
2018-03-23T08:02:59.622Z,5.00
2018-03-23T08:05:27.133Z,5.10
2018-03-23T08:07:54.665Z,5.20
2018-03-23T08:10:22.205Z,5.20
2018-03-23T08:12:50.501Z,5.30
2018-03-23T08:15:18.013Z,5.20
2018-03-23T08:17:45.556Z,5.30
2018-03-23T08:20:13.068Z,5.30
2018-03-23T08:22:40.657Z,5.50
2018-03-23T08:25:08.161Z,5.50
2018-03-23T08:27:36.459Z,5.60
2018-03-23T08:30:03.964Z,5.60
2018-03-23T08:32:32.281Z,5.60
2018-03-23T08:34:59.869Z,5.60
2018-03-23T08:37:28.126Z,5.80
2018-03-23T08:39:55.632Z,5.80
2018-03-23T08:42:23.167Z,5.90
2018-03-23T08:44:50.673Z,6.00
2018-03-23T08:47:18.204Z,6.20
2018-03-23T08:49:45.716Z,6.30
2018-03-23T08:52:13.248Z,6.30
2018-03-23T08:54:40.794Z,6.30
2018-03-23T08:57:09.100Z,6.30
2018-03-23T08:59:36.608Z,6.30
2018-03-23T09:02:04.940Z,6.20
2018-03-23T09:04:32.436Z,6.20
2018-03-23T09:06:59.969Z,6.10
2018-03-23T09:09:27.480Z,6.20
2018-03-23T09:11:55.020Z,6.10
2018-03-23T09:14:23.293Z,6.10
2018-03-23T09:16:51.593Z,6.20
2018-03-23T09:19:19.127Z,6.20
2018-03-23T09:21:47.430Z,6.10
2018-03-23T09:24:14.948Z,6.10
2018-03-23T09:26:43.225Z,6.10
2018-03-23T09:29:11.532Z,6.00
2018-03-23T09:31:39.044Z,6.00
2018-03-23T09:34:07.340Z,6.10
2018-03-23T09:36:34.848Z,6.10
2018-03-23T09:39:02.388Z,6.20
2018-03-23T09:41:29.909Z,6.30
2018-03-23T09:43:57.448Z,6.30
2018-03-23T09:46:25.735Z,6.20
2018-03-23T09:48:54.029Z,6.30
2018-03-23T09:51:21.544Z,6.30
2018-03-23T09:53:49.844Z,6.40
2018-03-23T09:56:17.355Z,6.40
2018-03-23T09:58:44.886Z,6.50
2018-03-23T10:01:12.393Z,6.50
2018-03-23T10:03:40.808Z,6.50
2018-03-23T10:06:08.317Z,6.50
2018-03-23T10:08:35.849Z,6.60
2018-03-23T10:11:03.356Z,6.50
2018-03-23T10:13:30.884Z,6.60
2018-03-23T10:15:58.391Z,6.60
2018-03-23T10:18:25.936Z,6.60
2018-03-23T10:20:53.469Z,6.80
2018-03-23T10:23:21.795Z,7.00
2018-03-23T10:25:49.304Z,6.90
2018-03-23T10:28:16.843Z,7.10
2018-03-23T10:30:45.147Z,7.30
2018-03-23T10:33:12.682Z,7.30
2018-03-23T10:35:40.961Z,7.30
2018-03-23T10:38:09.368Z,7.50
2018-03-23T10:40:37.136Z,7.50
2018-03-23T10:43:04.667Z,7.50
2018-03-23T10:45:32.176Z,7.50
2018-03-23T10:47:59.720Z,7.60
2018-03-23T10:50:27.242Z,7.80
2018-03-23T10:52:54.781Z,7.90
2018-03-23T10:55:23.052Z,8.00
2018-03-23T10:57:51.348Z,8.00
2018-03-23T11:00:18.857Z,8.00
2018-03-23T11:03:01.130Z,8.20
2018-03-23T11:05:28.640Z,8.30
2018-03-23T11:07:56.937Z,8.70
2018-03-23T11:10:24.445Z,8.70
2018-03-23T11:12:52.765Z,8.70
2018-03-23T11:15:20.293Z,8.70
2018-03-23T11:17:48.609Z,9.00
2018-03-23T11:20:16.121Z,9.00
2018-03-23T11:22:44.397Z,8.80
2018-03-23T11:25:12.696Z,8.70
2018-03-23T11:27:40.206Z,8.70
2018-03-23T11:30:07.737Z,8.60
2018-03-23T11:32:35.257Z,8.60
2018-03-23T11:35:02.805Z,8.70
2018-03-23T11:37:31.080Z,8.70
2018-03-23T11:39:58.617Z,8.70
2018-03-23T11:42:26.153Z,8.60
2018-03-23T11:44:53.685Z,8.60
2018-03-23T11:47:21.208Z,8.50
2018-03-23T11:49:48.736Z,8.50
2018-03-23T11:52:16.293Z,8.50
2018-03-23T11:54:43.833Z,8.50
2018-03-23T11:57:11.340Z,8.60
2018-03-23T11:59:38.872Z,8.70
2018-03-23T12:02:07.144Z,8.60
2018-03-23T12:04:35.446Z,8.60
2018-03-23T12:07:02.964Z,8.50
2018-03-23T12:09:30.520Z,8.60
2018-03-23T12:11:58.028Z,8.40
2018-03-23T12:14:25.605Z,8.60
2018-03-23T12:16:53.097Z,8.80
2018-03-23T12:19:21.392Z,8.70
2018-03-23T12:21:48.909Z,8.70
2018-03-23T12:24:16.440Z,8.70
2018-03-23T12:26:43.945Z,8.80
2018-03-23T12:29:12.245Z,9.00
2018-03-23T12:31:39.776Z,9.00
2018-03-23T12:34:08.072Z,9.30
2018-03-23T12:36:35.580Z,9.30
2018-03-23T12:39:03.121Z,9.60
2018-03-23T12:41:30.624Z,9.70
2018-03-23T12:43:58.923Z,9.70
2018-03-23T12:46:26.459Z,9.70
2018-03-23T12:48:53.992Z,9.60
2018-03-23T12:51:22.279Z,9.50
2018-03-23T12:53:49.833Z,9.50
2018-03-23T12:56:18.125Z,9.40
2018-03-23T12:58:45.668Z,9.40
2018-03-23T13:01:13.941Z,9.50
2018-03-23T13:03:42.298Z,9.50
2018-03-23T13:06:09.781Z,9.50
2018-03-23T13:08:37.319Z,9.50
2018-03-23T13:11:05.601Z,9.40
2018-03-23T13:13:33.909Z,9.40
2018-03-23T13:16:01.416Z,9.40
2018-03-23T13:18:29.713Z,9.10
2018-03-23T13:20:57.220Z,9.10
2018-03-23T13:23:24.728Z,9.20
2018-03-23T13:25:52.273Z,9.10
2018-03-23T13:28:19.809Z,8.90
2018-03-23T13:30:47.476Z,8.90
2018-03-23T13:33:15.744Z,8.80
2018-03-23T13:35:43.283Z,8.80
2018-03-23T13:38:10.788Z,8.80
2018-03-23T13:40:38.337Z,8.70
2018-03-23T13:43:05.848Z,8.90
2018-03-23T13:45:33.384Z,9.00
2018-03-23T13:48:00.892Z,9.10
2018-03-23T13:50:29.187Z,9.10
2018-03-23T13:52:56.696Z,9.10
2018-03-23T13:55:24.232Z,9.10
2018-03-23T13:57:51.741Z,8.90
2018-03-23T14:00:25.725Z,9.00
2018-03-23T14:02:53.268Z,9.00
2018-03-23T14:05:20.792Z,9.00
2018-03-23T14:07:48.621Z,9.10
2018-03-23T14:10:16.916Z,9.10
2018-03-23T14:12:44.421Z,9.00
2018-03-23T14:15:11.960Z,9.20
2018-03-23T14:17:40.270Z,9.10
2018-03-23T14:20:07.784Z,9.10
2018-03-23T14:22:35.296Z,9.10
2018-03-23T14:25:03.597Z,9.20
2018-03-23T14:27:31.108Z,9.20
2018-03-23T14:29:59.404Z,9.20
2018-03-23T14:32:26.920Z,9.10
2018-03-23T14:34:54.452Z,8.90
2018-03-23T14:37:21.968Z,9.00
2018-03-23T14:39:50.270Z,9.00
2018-03-23T14:42:17.776Z,9.00
2018-03-23T14:44:45.310Z,8.90
2018-03-23T14:47:12.841Z,8.90
2018-03-23T14:49:40.381Z,8.90
2018-03-23T14:52:07.892Z,8.90
2018-03-23T14:54:36.224Z,9.00
2018-03-23T14:57:03.735Z,9.00
2018-03-23T14:59:33.974Z,8.90
2018-03-23T15:02:02.250Z,8.90
2018-03-23T15:04:29.788Z,8.90
2018-03-23T15:06:58.065Z,8.80
2018-03-23T15:09:26.373Z,8.80
2018-03-23T15:11:54.150Z,8.80
2018-03-23T15:14:21.700Z,8.80
2018-03-23T15:16:49.237Z,8.80
2018-03-23T15:19:16.773Z,8.80
2018-03-23T15:21:45.056Z,8.80
2018-03-23T15:24:12.603Z,8.80
2018-03-23T15:26:40.876Z,8.90
2018-03-23T15:29:09.200Z,8.90
2018-03-23T15:31:36.831Z,8.80
2018-03-23T15:34:04.341Z,8.70
2018-03-23T15:36:31.877Z,8.80
2018-03-23T15:38:59.565Z,8.70
2018-03-23T15:41:27.104Z,8.60
2018-03-23T15:43:54.610Z,8.60
2018-03-23T15:46:22.156Z,8.50
2018-03-23T15:48:50.517Z,8.50
2018-03-23T15:51:18.833Z,8.40
2018-03-23T15:53:46.349Z,8.40
2018-03-23T15:56:14.884Z,8.40
2018-03-23T15:58:42.401Z,8.40
2018-03-23T16:01:10.114Z,8.40
2018-03-23T16:03:37.656Z,8.40
2018-03-23T16:06:09.603Z,8.50
2018-03-23T16:08:37.122Z,8.50
2018-03-23T16:11:05.852Z,8.50
2018-03-23T16:13:33.387Z,8.50
2018-03-23T16:18:53.105Z,8.40
2018-03-23T16:21:20.616Z,8.30
2018-03-23T16:23:49.744Z,8.10
2018-03-23T16:26:17.265Z,8.10
2018-03-23T16:28:45.577Z,8.10
2018-03-23T16:31:13.099Z,8.10
2018-03-23T16:33:40.656Z,7.90
2018-03-23T16:36:08.169Z,8.00
2018-03-23T16:38:38.083Z,7.90
2018-03-23T16:41:05.661Z,7.90
2018-03-23T16:46:24.616Z,8.00
2018-03-23T16:48:52.177Z,8.00
2018-03-23T16:51:19.715Z,7.90
2018-03-23T16:53:48.562Z,7.90
2018-03-23T16:56:16.107Z,7.90
2018-03-23T16:58:44.431Z,7.80
2018-03-23T17:01:11.954Z,7.70
2018-03-23T17:03:39.471Z,7.70
2018-03-23T17:06:07.028Z,7.60
2018-03-23T17:08:34.561Z,7.50
2018-03-23T17:11:02.096Z,7.40
2018-03-23T17:13:29.648Z,7.40
2018-03-23T17:15:57.185Z,7.40
2018-03-23T17:18:24.702Z,7.10
2018-03-23T17:20:52.247Z,7.20
2018-03-23T17:23:19.786Z,7.30
2018-03-23T17:25:47.321Z,7.30
2018-03-23T17:28:15.101Z,7.10
2018-03-23T17:30:42.641Z,7.00
2018-03-23T17:33:10.206Z,7.00
2018-03-23T17:35:37.751Z,7.10
2018-03-23T17:38:06.181Z,7.00
2018-03-23T17:40:33.733Z,7.10
2018-03-23T17:43:01.245Z,7.00
2018-03-23T17:45:28.783Z,7.10
2018-03-23T17:47:56.318Z,7.00
2018-03-23T17:50:24.628Z,6.90
2018-03-23T17:52:52.147Z,6.80
2018-03-23T17:55:20.454Z,6.80
2018-03-23T17:57:47.979Z,6.80
2018-03-23T18:00:16.291Z,6.70
2018-03-23T18:02:43.801Z,6.70
2018-03-23T18:05:12.133Z,6.80
2018-03-23T18:07:39.648Z,6.80
2018-03-23T18:10:07.942Z,6.60
2018-03-23T18:12:35.485Z,6.60
2018-03-23T18:15:04.010Z,6.40
2018-03-23T18:17:31.553Z,6.40
2018-03-23T18:19:59.066Z,6.30
2018-03-23T18:22:27.364Z,6.20
2018-03-23T18:24:55.758Z,6.20
2018-03-23T18:27:23.306Z,6.20
2018-03-23T18:29:50.821Z,6.20
2018-03-23T18:32:19.145Z,6.40
2018-03-23T18:34:46.662Z,6.30
2018-03-23T18:37:15.296Z,6.40
2018-03-23T18:39:42.810Z,6.40
2018-03-23T18:42:10.357Z,6.30
2018-03-23T18:44:38.880Z,6.40
2018-03-23T18:47:06.532Z,6.40
2018-03-23T18:49:34.040Z,6.30
2018-03-23T18:52:01.586Z,6.40
2018-03-23T18:54:29.100Z,6.40
2018-03-23T18:56:56.608Z,6.30
2018-03-23T18:59:24.925Z,6.40
2018-03-23T19:01:52.450Z,6.40
2018-03-23T19:04:20.753Z,6.40
2018-03-23T19:06:48.273Z,6.30
2018-03-23T19:09:16.578Z,6.30
2018-03-23T19:11:44.132Z,6.20
2018-03-23T19:14:11.670Z,6.20
2018-03-23T19:16:39.968Z,6.10
2018-03-23T19:19:07.508Z,6.10
2018-03-23T19:21:35.025Z,6.10
2018-03-23T19:24:03.357Z,6.10
2018-03-23T19:26:30.877Z,6.10
2018-03-23T19:28:59.192Z,6.20
2018-03-23T19:31:26.968Z,6.20
2018-03-23T19:33:55.277Z,6.30
2018-03-23T19:36:22.794Z,6.30
2018-03-23T19:38:50.342Z,6.20
2018-03-23T19:41:17.881Z,6.10
2018-03-23T19:43:45.447Z,6.10
2018-03-23T19:46:12.961Z,6.00
2018-03-23T19:48:40.521Z,5.90
2018-03-23T19:51:08.062Z,5.90
2018-03-23T19:53:35.594Z,5.90
2018-03-23T19:56:03.134Z,6.00
2018-03-23T19:58:30.645Z,6.30
2018-03-23T20:00:58.177Z,6.30
2018-03-23T20:03:25.698Z,6.20
2018-03-23T20:05:53.242Z,6.10
2018-03-23T20:08:20.765Z,6.00
2018-03-23T20:10:48.318Z,5.90
2018-03-23T20:13:16.243Z,5.90
2018-03-23T20:15:43.785Z,5.90
2018-03-23T20:18:17.058Z,6.20
2018-03-23T20:20:51.109Z,6.40
2018-03-23T20:23:18.621Z,6.40
2018-03-23T20:25:46.936Z,6.20
2018-03-23T20:28:20.129Z,6.20
2018-03-23T20:30:47.685Z,6.20
2018-03-23T20:33:15.193Z,6.20
2018-03-23T20:35:43.518Z,6.30
2018-03-23T20:38:11.074Z,6.20
2018-03-23T20:40:38.617Z,6.20
2018-03-23T20:43:06.144Z,6.10
2018-03-23T20:45:33.690Z,5.90
2018-03-23T20:48:01.966Z,5.80
2018-03-23T20:50:30.269Z,5.70
2018-03-23T20:52:57.788Z,5.70
2018-03-23T20:55:26.101Z,5.70
2018-03-23T20:57:53.638Z,5.70
2018-03-23T21:00:21.184Z,5.70
2018-03-23T21:02:49.814Z,5.60
2018-03-23T21:05:17.333Z,5.60
2018-03-23T21:07:44.894Z,5.60
2018-03-23T21:10:12.423Z,5.60
2018-03-23T21:12:39.993Z,5.70
2018-03-23T21:15:08.282Z,5.70
2018-03-23T21:17:35.833Z,5.60
2018-03-23T21:20:03.416Z,5.60
2018-03-23T21:22:30.976Z,5.60
2018-03-23T21:24:58.494Z,5.80
2018-03-23T21:27:26.810Z,5.60
2018-03-23T21:29:54.325Z,5.60
2018-03-23T21:32:22.636Z,5.50
2018-03-23T21:34:50.148Z,5.50
2018-03-23T21:37:18.452Z,5.50
2018-03-23T21:39:45.963Z,5.50
2018-03-23T21:42:13.534Z,5.60
2018-03-23T21:44:41.817Z,5.60
2018-03-23T21:47:10.137Z,5.50
2018-03-23T21:49:37.664Z,5.50
2018-03-23T21:52:05.172Z,5.50
2018-03-23T21:54:32.710Z,5.60
2018-03-23T21:57:00.244Z,5.60
2018-03-23T21:59:27.777Z,5.70
2018-03-23T22:01:55.300Z,5.60
2018-03-23T22:04:22.845Z,5.50
2018-03-23T22:06:50.361Z,5.40
2018-03-23T22:09:17.913Z,5.30
2018-03-23T22:11:45.426Z,5.30
2018-03-23T22:14:12.964Z,5.20
2018-03-23T22:16:40.478Z,5.30
2018-03-23T22:19:08.030Z,5.30
2018-03-23T22:21:35.554Z,5.30
2018-03-23T22:24:03.093Z,5.20
2018-03-23T22:26:30.604Z,5.40
2018-03-23T22:28:58.145Z,5.50
2018-03-23T22:31:26.424Z,5.50
2018-03-23T22:33:53.986Z,5.50
2018-03-23T22:36:21.508Z,5.50
2018-03-23T22:38:49.052Z,5.50
2018-03-23T22:41:16.565Z,5.40
2018-03-23T22:43:44.077Z,5.60
2018-03-23T22:46:11.613Z,5.30
2018-03-23T22:48:39.121Z,5.40
2018-03-23T22:51:06.665Z,5.40
2018-03-23T22:53:34.964Z,5.50
2018-03-23T22:56:02.497Z,5.60
2018-03-23T22:58:31.021Z,5.30
2018-03-23T23:00:58.557Z,5.30
2018-03-23T23:03:26.077Z,5.30
2018-03-23T23:05:54.714Z,5.30
2018-03-23T23:08:22.229Z,5.30
2018-03-23T23:10:50.529Z,5.10
2018-03-23T23:13:18.040Z,5.10
2018-03-23T23:15:45.580Z,5.10
2018-03-23T23:18:13.130Z,5.10
2018-03-23T23:20:40.668Z,4.90
2018-03-23T23:23:08.181Z,4.80
2018-03-23T23:25:36.495Z,4.70
2018-03-23T23:28:04.021Z,4.70
2018-03-23T23:30:31.576Z,4.60
2018-03-23T23:32:59.096Z,4.60
2018-03-23T23:35:26.604Z,4.80
2018-03-23T23:37:54.141Z,4.80
2018-03-23T23:40:21.648Z,4.80
2018-03-23T23:42:49.184Z,4.80
2018-03-23T23:45:16.708Z,4.70
2018-03-23T23:47:44.245Z,4.50
2018-03-23T23:50:11.756Z,4.30
2018-03-23T23:52:39.295Z,4.30
2018-03-23T23:55:07.077Z,4.40
2018-03-23T23:57:34.613Z,4.40
